Time;durP1;ratioP1;P1;durP2;ratioP2;P2;SDS_P1;SDS_P2;PMS_P1;PMS_P2;Temp;Humidity;BMP_temperature;BMP_pressure;BME280_temperature;BME280_humidity;BME280_pressure;Samples;Min_cycle;Max_cycle;Signal;HPM_P1;HPM_P2
2023/09/13 00:01:29;;;;;;;27.40;20.80;;;;;;;-128.00;-1.00;-1.00;105628;1250;1004059;-81
2023/09/13 00:04:07;;;;;;;43.80;22.40;;;;;;;-128.00;-1.00;-1.00;105722;1250;1057501;-80
2023/09/13 00:06:49;;;;;;;27.20;20.20;;;;;;;-128.00;-1.00;-1.00;105547;1251;1060012;-80
2023/09/13 00:09:16;;;;;;;29.20;20.40;;;;;;;-128.00;-1.00;-1.00;105589;1251;1004325;-81
2023/09/13 00:11:43;;;;;;;22.70;18.40;;;;;;;-128.00;-1.00;-1.00;105546;1251;1004924;-81
2023/09/13 00:14:09;;;;;;;29.30;19.40;;;;;;;-128.00;-1.00;-1.00;105599;1251;1004499;-81
2023/09/13 00:16:36;;;;;;;27.90;20.40;;;;;;;-128.00;-1.00;-1.00;105618;1250;1004733;-81
2023/09/13 00:19:04;;;;;;;30.90;20.10;;;;;;;-128.00;-1.00;-1.00;105611;1251;1005298;-81
2023/09/13 00:21:31;;;;;;;26.30;19.60;;;;;;;-128.00;-1.00;-1.00;105599;1251;1004457;-81
2023/09/13 00:23:58;;;;;;;24.90;19.70;;;;;;;-128.00;-1.00;-1.00;105605;1251;1004937;-81
2023/09/13 00:26:25;;;;;;;27.50;18.90;;;;;;;-128.00;-1.00;-1.00;105446;1251;1004216;-81
2023/09/13 00:28:51;;;;;;;27.10;20.20;;;;;;;-128.00;-1.00;-1.00;105614;1251;1004448;-81
2023/09/13 00:31:18;;;;;;;30.10;19.70;;;;;;;-128.00;-1.00;-1.00;105571;1251;1003977;-80
2023/09/13 00:33:44;;;;;;;23.80;19.30;;;;;;;-128.00;-1.00;-1.00;105559;1251;1003473;-80
2023/09/13 00:36:11;;;;;;;28.90;20.50;;;;;;;-128.00;-1.00;-1.00;105554;1251;1005213;-81
2023/09/13 00:38:37;;;;;;;31.40;21.60;;;;;;;-128.00;-1.00;-1.00;105629;1251;1004529;-81
2023/09/13 00:41:04;;;;;;;31.00;20.60;;;;;;;-128.00;-1.00;-1.00;105610;1250;1005502;-81
2023/09/13 00:43:30;;;;;;;25.20;19.00;;;;;;;-128.00;-1.00;-1.00;105608;1251;1004355;-81
2023/09/13 00:45:57;;;;;;;29.00;20.80;;;;;;;-128.00;-1.00;-1.00;105517;1251;1004688;-80
2023/09/13 00:48:24;;;;;;;26.10;20.40;;;;;;;-128.00;-1.00;-1.00;105498;1253;1003346;-81
2023/09/13 00:50:50;;;;;;;29.30;19.40;;;;;;;-128.00;-1.00;-1.00;105618;1250;1003738;-81
2023/09/13 00:53:18;;;;;;;23.70;18.60;;;;;;;-128.00;-1.00;-1.00;105630;1251;1005145;-81
2023/09/13 00:55:46;;;;;;;28.60;18.90;;;;;;;-128.00;-1.00;-1.00;105725;1251;1004799;-81
2023/09/13 00:58:12;;;;;;;22.30;17.30;;;;;;;-128.00;-1.00;-1.00;105576;1250;1004569;-80
2023/09/13 01:00:39;;;;;;;25.00;18.90;;;;;;;-128.00;-1.00;-1.00;105568;1250;1005152;-81
2023/09/13 01:03:06;;;;;;;27.00;19.40;;;;;;;-128.00;-1.00;-1.00;105598;1251;1004520;-81
2023/09/13 01:05:34;;;;;;;21.70;17.60;;;;;;;-128.00;-1.00;-1.00;105565;1251;1005228;-81
2023/09/13 01:08:01;;;;;;;23.90;18.90;;;;;;;-128.00;-1.00;-1.00;105415;1251;1004075;-81
2023/09/13 01:10:27;;;;;;;24.80;18.90;;;;;;;-128.00;-1.00;-1.00;105487;1251;1004225;-81
2023/09/13 01:12:54;;;;;;;25.00;19.10;;;;;;;-128.00;-1.00;-1.00;105620;1251;1003726;-80
2023/09/13 01:15:22;;;;;;;23.40;18.50;;;;;;;-128.00;-1.00;-1.00;105631;1251;1004108;-80
2023/09/13 01:17:54;;;;;;;23.30;17.20;;;;;;;-128.00;-1.00;-1.00;105640;1251;1057254;-82
2023/09/13 01:20:32;;;;;;;23.10;18.60;;;;;;;-128.00;-1.00;-1.00;105544;1252;1060040;-80
2023/09/13 01:23:11;;;;;;;26.40;18.70;;;;;;;-128.00;-1.00;-1.00;105589;1251;1046899;-81
2023/09/13 01:26:05;;;;;;;26.50;18.10;;;;;;;-128.00;-1.00;-1.00;105529;1251;1047737;-81
2023/09/13 01:28:34;;;;;;;23.70;17.10;;;;;;;-128.00;-1.00;-1.00;105600;1251;1061522;-81
2023/09/13 01:31:21;;;;;;;24.70;18.70;;;;;;;-128.00;-1.00;-1.00;105608;1251;1059853;-81
2023/09/13 01:33:47;;;;;;;25.40;17.60;;;;;;;-128.00;-1.00;-1.00;105442;1251;1058347;-81
2023/09/13 01:36:14;;;;;;;24.80;17.40;;;;;;;-128.00;-1.00;-1.00;105578;1251;1004523;-81
2023/09/13 01:38:42;;;;;;;23.20;16.90;;;;;;;-128.00;-1.00;-1.00;105631;1251;1004729;-81
2023/09/13 01:41:13;;;;;;;31.70;18.40;;;;;;;-128.00;-1.00;-1.00;105645;1255;1003980;-81
2023/09/13 01:43:42;;;;;;;25.90;18.80;;;;;;;-128.00;-1.00;-1.00;105500;1251;1059524;-80
2023/09/13 01:46:27;;;;;;;25.00;18.60;;;;;;;-128.00;-1.00;-1.00;105469;1254;1058670;-81
2023/09/13 01:48:56;;;;;;;24.50;17.90;;;;;;;-128.00;-1.00;-1.00;105350;1251;1046545;-81
2023/09/13 01:51:31;;;;;;;23.30;17.50;;;;;;;-128.00;-1.00;-1.00;105533;1251;1047576;-81
2023/09/13 01:54:01;;;;;;;23.50;18.20;;;;;;;-128.00;-1.00;-1.00;105561;1251;1061644;-81
2023/09/13 01:56:28;;;;;;;27.40;18.40;;;;;;;-128.00;-1.00;-1.00;105511;1251;1003712;-81
2023/09/13 01:59:12;;;;;;;26.10;18.20;;;;;;;-128.00;-1.00;-1.00;105579;1251;1058228;-81
2023/09/13 02:01:53;;;;;;;25.00;19.30;;;;;;;-128.00;-1.00;-1.00;105303;1256;1045683;-81
2023/09/13 02:04:20;;;;;;;24.10;19.50;;;;;;;-128.00;-1.00;-1.00;105294;1256;1004993;-81
2023/09/13 02:06:48;;;;;;;25.90;18.40;;;;;;;-128.00;-1.00;-1.00;105195;1257;1004825;-81
2023/09/13 02:09:14;;;;;;;27.00;19.10;;;;;;;-128.00;-1.00;-1.00;105236;1256;1004118;-81
2023/09/13 02:11:41;;;;;;;26.70;19.20;;;;;;;-128.00;-1.00;-1.00;105314;1257;1003918;-81
2023/09/13 02:14:07;;;;;;;25.70;18.40;;;;;;;-128.00;-1.00;-1.00;105346;1258;1004151;-81
2023/09/13 02:16:33;;;;;;;25.40;20.20;;;;;;;-128.00;-1.00;-1.00;105341;1255;1004355;-81
2023/09/13 02:19:00;;;;;;;24.30;18.90;;;;;;;-128.00;-1.00;-1.00;105328;1256;1003978;-81
2023/09/13 02:21:28;;;;;;;23.90;18.50;;;;;;;-128.00;-1.00;-1.00;105198;1255;1003667;-81
2023/09/13 02:23:54;;;;;;;23.50;19.30;;;;;;;-128.00;-1.00;-1.00;105344;1257;1005225;-82
2023/09/13 02:26:21;;;;;;;25.80;17.50;;;;;;;-128.00;-1.00;-1.00;105335;1256;1003957;-81
2023/09/13 02:28:48;;;;;;;24.20;17.70;;;;;;;-128.00;-1.00;-1.00;105325;1257;1003551;-81
2023/09/13 02:31:24;;;;;;;25.30;18.00;;;;;;;-128.00;-1.00;-1.00;105195;1257;1004951;-80
2023/09/13 02:33:50;;;;;;;22.20;16.80;;;;;;;-128.00;-1.00;-1.00;105346;1256;1057340;-81
2023/09/13 02:36:17;;;;;;;23.00;16.30;;;;;;;-128.00;-1.00;-1.00;105401;1257;1003627;-81
2023/09/13 02:38:43;;;;;;;20.30;17.20;;;;;;;-128.00;-1.00;-1.00;105318;1256;1003857;-80
2023/09/13 02:41:10;;;;;;;24.30;18.20;;;;;;;-128.00;-1.00;-1.00;105322;1257;1005132;-81
2023/09/13 02:43:39;;;;;;;22.90;17.40;;;;;;;-128.00;-1.00;-1.00;105353;1256;1003715;-81
2023/09/13 02:46:05;;;;;;;23.00;18.30;;;;;;;-128.00;-1.00;-1.00;105422;1254;1058313;-81
2023/09/13 02:48:32;;;;;;;25.00;18.20;;;;;;;-128.00;-1.00;-1.00;105230;1256;1003647;-80
2023/09/13 02:50:58;;;;;;;22.90;18.20;;;;;;;-128.00;-1.00;-1.00;105282;1257;1004642;-80
2023/09/13 02:53:25;;;;;;;23.30;18.70;;;;;;;-128.00;-1.00;-1.00;105348;1255;1005353;-81
2023/09/13 02:55:52;;;;;;;22.60;17.40;;;;;;;-128.00;-1.00;-1.00;105291;1257;1004138;-81
2023/09/13 02:58:18;;;;;;;26.80;19.50;;;;;;;-128.00;-1.00;-1.00;105342;1253;1005009;-81
2023/09/13 03:00:44;;;;;;;24.70;18.70;;;;;;;-128.00;-1.00;-1.00;105592;1251;1004190;-80
2023/09/13 03:03:11;;;;;;;26.90;18.30;;;;;;;-128.00;-1.00;-1.00;105606;1251;1004881;-81
2023/09/13 03:05:37;;;;;;;21.10;17.00;;;;;;;-128.00;-1.00;-1.00;105641;1251;1004401;-80
2023/09/13 03:08:04;;;;;;;26.10;16.60;;;;;;;-128.00;-1.00;-1.00;105617;1251;1003916;-82
2023/09/13 03:10:33;;;;;;;25.80;19.10;;;;;;;-128.00;-1.00;-1.00;105646;1251;1003845;-81
2023/09/13 03:12:59;;;;;;;29.10;16.80;;;;;;;-128.00;-1.00;-1.00;105496;1251;1060354;-80
2023/09/13 03:15:25;;;;;;;22.80;17.50;;;;;;;-128.00;-1.00;-1.00;105594;1251;1004227;-81
2023/09/13 03:17:52;;;;;;;21.00;15.70;;;;;;;-128.00;-1.00;-1.00;105605;1251;1004602;-81
2023/09/13 03:20:19;;;;;;;21.60;16.00;;;;;;;-128.00;-1.00;-1.00;105540;1251;1003963;-80
2023/09/13 03:22:45;;;;;;;23.50;17.50;;;;;;;-128.00;-1.00;-1.00;105627;1251;1004718;-80
2023/09/13 03:25:12;;;;;;;25.60;18.20;;;;;;;-128.00;-1.00;-1.00;105577;1252;1004101;-80
2023/09/13 03:27:38;;;;;;;30.00;18.50;;;;;;;-128.00;-1.00;-1.00;105583;1252;1003466;-80
2023/09/13 03:30:05;;;;;;;25.50;17.00;;;;;;;-128.00;-1.00;-1.00;105600;1251;1004142;-80
2023/09/13 03:32:32;;;;;;;23.90;17.90;;;;;;;-128.00;-1.00;-1.00;105616;1251;1004424;-81
2023/09/13 03:34:58;;;;;;;29.80;19.30;;;;;;;-128.00;-1.00;-1.00;105645;1251;1003898;-80
2023/09/13 03:37:24;;;;;;;25.80;18.00;;;;;;;-128.00;-1.00;-1.00;105591;1251;1003723;-80
2023/09/13 03:39:51;;;;;;;26.80;17.90;;;;;;;-128.00;-1.00;-1.00;105605;1251;1005264;-81
2023/09/13 03:42:17;;;;;;;29.50;20.30;;;;;;;-128.00;-1.00;-1.00;105633;1251;1003687;-80
2023/09/13 03:44:44;;;;;;;26.90;19.40;;;;;;;-128.00;-1.00;-1.00;105628;1251;1004455;-81
2023/09/13 03:47:10;;;;;;;21.40;17.60;;;;;;;-128.00;-1.00;-1.00;105627;1251;1004499;-80
2023/09/13 03:49:37;;;;;;;21.70;17.70;;;;;;;-128.00;-1.00;-1.00;105552;1253;1004396;-80
2023/09/13 03:52:03;;;;;;;26.10;17.50;;;;;;;-128.00;-1.00;-1.00;105556;1251;1003981;-81
2023/09/13 03:54:31;;;;;;;23.90;17.40;;;;;;;-128.00;-1.00;-1.00;105572;1251;1005089;-81
2023/09/13 03:56:58;;;;;;;21.80;17.70;;;;;;;-128.00;-1.00;-1.00;105563;1253;1004289;-80
2023/09/13 03:59:24;;;;;;;27.90;18.90;;;;;;;-128.00;-1.00;-1.00;105676;1251;1005085;-80
2023/09/13 04:01:50;;;;;;;28.10;20.30;;;;;;;-128.00;-1.00;-1.00;105731;1252;1003560;-81
2023/09/13 04:04:17;;;;;;;27.10;17.50;;;;;;;-128.00;-1.00;-1.00;105664;1251;1004464;-81
2023/09/13 04:06:44;;;;;;;27.60;18.60;;;;;;;-128.00;-1.00;-1.00;105640;1251;1004122;-80
2023/09/13 04:09:10;;;;;;;23.30;17.70;;;;;;;-128.00;-1.00;-1.00;105495;1251;1005506;-81
2023/09/13 04:11:37;;;;;;;25.60;18.10;;;;;;;-128.00;-1.00;-1.00;105620;1251;1004420;-81
2023/09/13 04:14:04;;;;;;;26.10;17.00;;;;;;;-128.00;-1.00;-1.00;105596;1252;1004953;-81
2023/09/13 04:16:30;;;;;;;22.80;17.90;;;;;;;-128.00;-1.00;-1.00;105539;1251;1004687;-80
2023/09/13 04:18:57;;;;;;;25.40;18.70;;;;;;;-128.00;-1.00;-1.00;105612;1255;1005179;-81
2023/09/13 04:21:23;;;;;;;32.10;20.00;;;;;;;-128.00;-1.00;-1.00;105610;1251;1004068;-80
2023/09/13 04:23:49;;;;;;;24.80;17.70;;;;;;;-128.00;-1.00;-1.00;105608;1251;1003966;-81
2023/09/13 04:26:21;;;;;;;27.20;19.10;;;;;;;-128.00;-1.00;-1.00;105579;1250;1003582;-80
2023/09/13 04:28:47;;;;;;;27.80;18.50;;;;;;;-128.00;-1.00;-1.00;105584;1251;1046516;-81
2023/09/13 04:31:14;;;;;;;25.10;18.00;;;;;;;-128.00;-1.00;-1.00;105566;1251;1004501;-80
2023/09/13 04:33:51;;;;;;;24.20;18.20;;;;;;;-128.00;-1.00;-1.00;105625;1252;1004429;-81
2023/09/13 04:36:18;;;;;;;22.90;17.50;;;;;;;-128.00;-1.00;-1.00;105581;1250;1058305;-81
2023/09/13 04:38:46;;;;;;;24.80;18.20;;;;;;;-128.00;-1.00;-1.00;105588;1251;1004252;-80
2023/09/13 04:41:13;;;;;;;23.30;18.30;;;;;;;-128.00;-1.00;-1.00;105620;1251;1004836;-81
2023/09/13 04:43:40;;;;;;;30.30;20.80;;;;;;;-128.00;-1.00;-1.00;105644;1251;1004320;-81
2023/09/13 04:46:07;;;;;;;26.40;18.50;;;;;;;-128.00;-1.00;-1.00;105447;1254;1004395;-81
2023/09/13 04:48:34;;;;;;;32.70;20.50;;;;;;;-128.00;-1.00;-1.00;105565;1254;1003950;-81
2023/09/13 04:51:01;;;;;;;24.70;17.50;;;;;;;-128.00;-1.00;-1.00;105688;1251;1004005;-81
2023/09/13 04:53:28;;;;;;;29.50;19.00;;;;;;;-128.00;-1.00;-1.00;105763;1251;1004562;-80
2023/09/13 04:55:54;;;;;;;23.60;18.60;;;;;;;-128.00;-1.00;-1.00;105619;1256;1004534;-80
2023/09/13 04:58:21;;;;;;;33.60;17.90;;;;;;;-128.00;-1.00;-1.00;105717;1253;1004523;-81
2023/09/13 05:00:48;;;;;;;25.60;18.90;;;;;;;-128.00;-1.00;-1.00;105620;1251;1004135;-81
2023/09/13 05:03:14;;;;;;;25.20;18.20;;;;;;;-128.00;-1.00;-1.00;105585;1251;1004981;-80
2023/09/13 05:05:41;;;;;;;29.20;20.60;;;;;;;-128.00;-1.00;-1.00;105540;1252;1004074;-81
2023/09/13 05:08:07;;;;;;;26.70;18.30;;;;;;;-128.00;-1.00;-1.00;105579;1251;1004554;-81
2023/09/13 05:10:33;;;;;;;27.60;20.00;;;;;;;-128.00;-1.00;-1.00;105569;1256;1004458;-81
2023/09/13 05:13:00;;;;;;;27.10;19.30;;;;;;;-128.00;-1.00;-1.00;105591;1251;1003770;-81
2023/09/13 05:15:26;;;;;;;28.50;18.60;;;;;;;-128.00;-1.00;-1.00;105591;1250;1003555;-81
2023/09/13 05:17:53;;;;;;;22.40;18.60;;;;;;;-128.00;-1.00;-1.00;105458;1251;1004785;-81
2023/09/13 05:20:19;;;;;;;29.50;19.20;;;;;;;-128.00;-1.00;-1.00;105606;1255;1004122;-81
2023/09/13 05:22:46;;;;;;;30.00;18.10;;;;;;;-128.00;-1.00;-1.00;105584;1251;1004375;-81
2023/09/13 05:25:12;;;;;;;25.80;18.20;;;;;;;-128.00;-1.00;-1.00;105616;1251;1004060;-81
2023/09/13 05:27:39;;;;;;;22.70;18.70;;;;;;;-128.00;-1.00;-1.00;105611;1250;1004031;-81
2023/09/13 05:30:06;;;;;;;26.10;19.20;;;;;;;-128.00;-1.00;-1.00;105574;1255;1004000;-81
2023/09/13 05:32:33;;;;;;;24.70;17.70;;;;;;;-128.00;-1.00;-1.00;105547;1255;1004226;-81
2023/09/13 05:34:59;;;;;;;22.90;17.50;;;;;;;-128.00;-1.00;-1.00;105611;1251;1003762;-80
2023/09/13 05:37:26;;;;;;;28.20;18.40;;;;;;;-128.00;-1.00;-1.00;105604;1250;1004807;-81
2023/09/13 05:39:52;;;;;;;26.80;18.90;;;;;;;-128.00;-1.00;-1.00;105600;1251;1003394;-81
2023/09/13 05:42:19;;;;;;;33.60;19.00;;;;;;;-128.00;-1.00;-1.00;105597;1251;1003751;-81
2023/09/13 05:44:45;;;;;;;26.00;19.40;;;;;;;-128.00;-1.00;-1.00;105610;1251;1003513;-81
2023/09/13 05:47:12;;;;;;;27.60;19.30;;;;;;;-128.00;-1.00;-1.00;105545;1251;1004529;-81
2023/09/13 05:49:38;;;;;;;23.70;17.40;;;;;;;-128.00;-1.00;-1.00;105587;1255;1003744;-81
2023/09/13 05:52:05;;;;;;;25.20;18.40;;;;;;;-128.00;-1.00;-1.00;105556;1251;1004914;-81
2023/09/13 05:54:31;;;;;;;28.40;18.70;;;;;;;-128.00;-1.00;-1.00;105392;1253;1004272;-81
2023/09/13 05:56:58;;;;;;;24.90;17.80;;;;;;;-128.00;-1.00;-1.00;105600;1250;1004182;-81
2023/09/13 05:59:24;;;;;;;22.30;17.60;;;;;;;-128.00;-1.00;-1.00;105611;1251;1004711;-81
2023/09/13 06:01:50;;;;;;;23.50;17.20;;;;;;;-128.00;-1.00;-1.00;105575;1253;1004633;-81
2023/09/13 06:04:17;;;;;;;23.50;16.50;;;;;;;-128.00;-1.00;-1.00;105475;1254;1003789;-81
2023/09/13 06:06:43;;;;;;;25.90;17.50;;;;;;;-128.00;-1.00;-1.00;105502;1251;1004670;-81
2023/09/13 06:09:10;;;;;;;24.90;18.30;;;;;;;-128.00;-1.00;-1.00;105491;1254;1004863;-81
2023/09/13 06:11:36;;;;;;;23.60;16.70;;;;;;;-128.00;-1.00;-1.00;105590;1251;1003935;-81
2023/09/13 06:14:07;;;;;;;24.10;17.50;;;;;;;-128.00;-1.00;-1.00;105475;1251;1005137;-81
2023/09/13 06:16:33;;;;;;;24.80;16.80;;;;;;;-128.00;-1.00;-1.00;105654;1251;1046386;-81
2023/09/13 06:19:00;;;;;;;22.50;16.70;;;;;;;-128.00;-1.00;-1.00;105525;1254;1004917;-81
2023/09/13 06:21:26;;;;;;;32.30;16.80;;;;;;;-128.00;-1.00;-1.00;105546;1254;1004687;-81
2023/09/13 06:23:53;;;;;;;25.50;15.30;;;;;;;-128.00;-1.00;-1.00;105400;1251;1004053;-81
2023/09/13 06:26:20;;;;;;;20.10;14.70;;;;;;;-128.00;-1.00;-1.00;105538;1251;1004379;-81
2023/09/13 06:28:47;;;;;;;24.20;15.60;;;;;;;-128.00;-1.00;-1.00;105563;1251;1004075;-81
2023/09/13 06:31:13;;;;;;;21.50;15.50;;;;;;;-128.00;-1.00;-1.00;105549;1251;1004512;-82
2023/09/13 06:33:40;;;;;;;19.80;15.20;;;;;;;-128.00;-1.00;-1.00;105550;1251;1004010;-81
2023/09/13 06:36:06;;;;;;;20.10;14.80;;;;;;;-128.00;-1.00;-1.00;105445;1251;1004230;-81
2023/09/13 06:38:33;;;;;;;26.40;14.90;;;;;;;-128.00;-1.00;-1.00;105515;1251;1004452;-81
2023/09/13 06:40:59;;;;;;;23.30;16.00;;;;;;;-128.00;-1.00;-1.00;105521;1250;1004873;-81
2023/09/13 06:43:25;;;;;;;27.90;16.30;;;;;;;-128.00;-1.00;-1.00;105523;1251;1003960;-81
2023/09/13 06:45:52;;;;;;;18.80;13.10;;;;;;;-128.00;-1.00;-1.00;105572;1251;1003697;-81
2023/09/13 06:48:19;;;;;;;19.70;13.60;;;;;;;-128.00;-1.00;-1.00;105563;1251;1004102;-81
2023/09/13 06:50:45;;;;;;;20.80;12.40;;;;;;;-128.00;-1.00;-1.00;105540;1251;1004568;-82
2023/09/13 06:53:12;;;;;;;23.70;13.10;;;;;;;-128.00;-1.00;-1.00;105506;1251;1003556;-82
2023/09/13 06:55:38;;;;;;;18.40;13.10;;;;;;;-128.00;-1.00;-1.00;105531;1252;1004454;-81
2023/09/13 06:58:06;;;;;;;17.10;12.10;;;;;;;-128.00;-1.00;-1.00;105557;1251;1004903;-81
2023/09/13 07:00:32;;;;;;;24.20;13.30;;;;;;;-128.00;-1.00;-1.00;105516;1251;1005041;-82
2023/09/13 07:03:02;;;;;;;20.10;11.70;;;;;;;-128.00;-1.00;-1.00;105407;1254;1004125;-81
2023/09/13 07:05:28;;;;;;;23.70;14.80;;;;;;;-128.00;-1.00;-1.00;105507;1251;1046097;-81
2023/09/13 07:07:55;;;;;;;28.40;14.00;;;;;;;-128.00;-1.00;-1.00;105516;1251;1004685;-81
2023/09/13 07:10:21;;;;;;;25.40;13.60;;;;;;;-128.00;-1.00;-1.00;105511;1251;1003959;-82
2023/09/13 07:12:48;;;;;;;19.90;11.40;;;;;;;-128.00;-1.00;-1.00;105508;1251;1004144;-82
2023/09/13 07:15:16;;;;;;;28.10;12.00;;;;;;;-128.00;-1.00;-1.00;105491;1251;1003786;-82
2023/09/13 07:17:42;;;;;;;24.10;11.00;;;;;;;-128.00;-1.00;-1.00;105516;1251;1004631;-82
2023/09/13 07:20:10;;;;;;;21.10;10.50;;;;;;;-128.00;-1.00;-1.00;105513;1251;1004010;-82
2023/09/13 07:22:39;;;;;;;15.90;11.10;;;;;;;-128.00;-1.00;-1.00;105534;1251;1004449;-82
2023/09/13 07:25:06;;;;;;;22.60;11.10;;;;;;;-128.00;-1.00;-1.00;105520;1253;1004473;-82
2023/09/13 07:27:32;;;;;;;20.80;10.70;;;;;;;-128.00;-1.00;-1.00;105408;1253;1003919;-81
2023/09/13 07:29:59;;;;;;;14.60;10.10;;;;;;;-128.00;-1.00;-1.00;105521;1251;1004299;-82
2023/09/13 07:32:26;;;;;;;12.20;9.50;;;;;;;-128.00;-1.00;-1.00;105482;1251;1004574;-82
2023/09/13 07:34:53;;;;;;;17.60;10.50;;;;;;;-128.00;-1.00;-1.00;105500;1251;1004514;-81
2023/09/13 07:37:20;;;;;;;15.50;9.60;;;;;;;-128.00;-1.00;-1.00;105544;1251;1004244;-81
2023/09/13 07:39:46;;;;;;;18.40;9.60;;;;;;;-128.00;-1.00;-1.00;105609;1251;1003815;-81
2023/09/13 07:42:13;;;;;;;16.70;10.50;;;;;;;-128.00;-1.00;-1.00;105550;1251;1005022;-81
2023/09/13 07:44:40;;;;;;;20.70;10.90;;;;;;;-128.00;-1.00;-1.00;105476;1254;1003409;-81
2023/09/13 07:47:06;;;;;;;19.00;9.80;;;;;;;-128.00;-1.00;-1.00;105485;1251;1004684;-81
2023/09/13 07:49:33;;;;;;;15.60;9.60;;;;;;;-128.00;-1.00;-1.00;105507;1251;1004436;-81
2023/09/13 07:51:59;;;;;;;15.60;9.50;;;;;;;-128.00;-1.00;-1.00;105536;1251;1004174;-81
2023/09/13 07:54:26;;;;;;;21.50;10.50;;;;;;;-128.00;-1.00;-1.00;105598;1251;1004598;-81
2023/09/13 07:56:52;;;;;;;14.70;9.60;;;;;;;-128.00;-1.00;-1.00;105538;1251;1005290;-81
2023/09/13 07:59:19;;;;;;;16.40;10.00;;;;;;;-128.00;-1.00;-1.00;105511;1251;1004862;-82
2023/09/13 08:01:45;;;;;;;22.20;9.90;;;;;;;-128.00;-1.00;-1.00;105526;1251;1004392;-82
2023/09/13 08:04:12;;;;;;;17.50;9.60;;;;;;;-128.00;-1.00;-1.00;105577;1250;1004409;-82
2023/09/13 08:06:41;;;;;;;24.50;9.90;;;;;;;-128.00;-1.00;-1.00;105544;1250;1004605;-82
2023/09/13 08:09:08;;;;;;;15.00;8.70;;;;;;;-128.00;-1.00;-1.00;105618;1251;1047199;-82
2023/09/13 08:11:35;;;;;;;15.10;9.90;;;;;;;-128.00;-1.00;-1.00;105381;1250;1005429;-82
2023/09/13 08:14:02;;;;;;;17.80;9.60;;;;;;;-128.00;-1.00;-1.00;105629;1251;1003849;-82
2023/09/13 08:16:29;;;;;;;13.40;9.40;;;;;;;-128.00;-1.00;-1.00;105551;1251;1004856;-82
2023/09/13 08:18:55;;;;;;;15.00;9.20;;;;;;;-128.00;-1.00;-1.00;105532;1253;1004505;-82
2023/09/13 08:21:22;;;;;;;12.90;8.20;;;;;;;-128.00;-1.00;-1.00;105550;1251;1004779;-82
2023/09/13 08:23:49;;;;;;;17.50;9.60;;;;;;;-128.00;-1.00;-1.00;105573;1251;1004312;-82
2023/09/13 08:26:18;;;;;;;16.10;8.20;;;;;;;-128.00;-1.00;-1.00;105547;1251;1004260;-81
2023/09/13 08:28:45;;;;;;;14.70;8.00;;;;;;;-128.00;-1.00;-1.00;105552;1251;1060924;-82
2023/09/13 08:31:12;;;;;;;16.50;7.80;;;;;;;-128.00;-1.00;-1.00;105553;1251;1004675;-82
2023/09/13 08:33:38;;;;;;;16.60;8.70;;;;;;;-128.00;-1.00;-1.00;105647;1251;1004596;-82
2023/09/13 08:36:05;;;;;;;21.20;8.20;;;;;;;-128.00;-1.00;-1.00;105578;1250;1004199;-82
2023/09/13 08:38:32;;;;;;;14.60;8.30;;;;;;;-128.00;-1.00;-1.00;105651;1251;1004606;-82
2023/09/13 08:40:58;;;;;;;15.90;10.10;;;;;;;-128.00;-1.00;-1.00;105640;1251;1005931;-82
2023/09/13 08:43:24;;;;;;;16.20;9.20;;;;;;;-128.00;-1.00;-1.00;105462;1251;1004045;-82
2023/09/13 08:45:51;;;;;;;24.40;9.00;;;;;;;-128.00;-1.00;-1.00;105487;1251;1004607;-82
2023/09/13 08:48:18;;;;;;;15.80;8.20;;;;;;;-128.00;-1.00;-1.00;105488;1251;1004520;-83
2023/09/13 08:50:46;;;;;;;14.10;7.00;;;;;;;-128.00;-1.00;-1.00;105512;1251;1004488;-83
2023/09/13 08:53:12;;;;;;;;;;;;;;;-128.00;-1.00;-1.00;105481;1251;1004040;-82
2023/09/13 08:55:39;;;;;;;13.60;6.40;;;;;;;-128.00;-1.00;-1.00;105593;1250;1005134;-83
2023/09/13 08:58:05;;;;;;;16.20;8.10;;;;;;;-128.00;-1.00;-1.00;105376;1251;1004290;-82
2023/09/13 09:00:37;;;;;;;17.00;7.40;;;;;;;-128.00;-1.00;-1.00;105536;1251;1004265;-82
2023/09/13 09:03:04;;;;;;;12.80;7.00;;;;;;;-128.00;-1.00;-1.00;105384;1252;1057776;-82
2023/09/13 09:05:31;;;;;;;17.50;8.10;;;;;;;-128.00;-1.00;-1.00;105535;1251;1004163;-81
2023/09/13 09:07:58;;;;;;;21.70;9.10;;;;;;;-128.00;-1.00;-1.00;105339;1253;1005328;-82
2023/09/13 09:10:25;;;;;;;15.10;9.00;;;;;;;-128.00;-1.00;-1.00;105360;1254;1003957;-81
2023/09/13 09:12:53;;;;;;;15.20;8.40;;;;;;;-128.00;-1.00;-1.00;105507;1251;1005161;-81
2023/09/13 09:15:19;;;;;;;20.90;7.90;;;;;;;-128.00;-1.00;-1.00;105538;1251;1004249;-81
2023/09/13 09:17:47;;;;;;;16.10;7.60;;;;;;;-128.00;-1.00;-1.00;105466;1251;1004145;-81
2023/09/13 09:20:14;;;;;;;14.70;8.70;;;;;;;-128.00;-1.00;-1.00;105359;1253;1003867;-82
2023/09/13 09:22:41;;;;;;;13.40;7.20;;;;;;;-128.00;-1.00;-1.00;105441;1253;1003552;-82
2023/09/13 09:25:11;;;;;;;12.90;8.00;;;;;;;-128.00;-1.00;-1.00;105256;1253;1003343;-82
2023/09/13 09:27:39;;;;;;;16.40;8.00;;;;;;;-128.00;-1.00;-1.00;105692;1249;1058722;-81
2023/09/13 09:30:06;;;;;;;11.40;7.00;;;;;;;-128.00;-1.00;-1.00;105640;1250;1004436;-82
2023/09/13 09:32:35;;;;;;;17.60;8.00;;;;;;;-128.00;-1.00;-1.00;105571;1252;1003405;-82
2023/09/13 09:35:04;;;;;;;12.20;7.80;;;;;;;-128.00;-1.00;-1.00;105574;1249;1048369;-82
2023/09/13 09:37:31;;;;;;;15.20;7.90;;;;;;;-128.00;-1.00;-1.00;105676;1251;1005299;-82
2023/09/13 09:39:58;;;;;;;11.50;7.70;;;;;;;-128.00;-1.00;-1.00;105620;1250;1004293;-82
2023/09/13 09:42:25;;;;;;;16.60;6.60;;;;;;;-128.00;-1.00;-1.00;105480;1251;1004253;-82
2023/09/13 09:44:52;;;;;;;15.80;7.10;;;;;;;-128.00;-1.00;-1.00;105418;1251;1004342;-81
2023/09/13 09:47:18;;;;;;;15.30;7.10;;;;;;;-128.00;-1.00;-1.00;105724;1251;1003962;-82
2023/09/13 09:49:49;;;;;;;17.60;6.90;;;;;;;-128.00;-1.00;-1.00;105620;1250;1005310;-82
2023/09/13 09:52:15;;;;;;;10.30;7.50;;;;;;;-128.00;-1.00;-1.00;105588;1251;1058898;-81
2023/09/13 09:54:48;;;;;;;15.40;7.50;;;;;;;-128.00;-1.00;-1.00;105576;1249;1004239;-81
2023/09/13 09:57:22;;;;;;;17.10;8.40;;;;;;;-128.00;-1.00;-1.00;105413;1254;1044368;-81
2023/09/13 09:59:49;;;;;;;15.80;7.40;;;;;;;-128.00;-1.00;-1.00;105536;1250;1047446;-82
2023/09/13 10:02:15;;;;;;;18.60;7.50;;;;;;;-128.00;-1.00;-1.00;105475;1250;1004389;-82
2023/09/13 10:04:45;;;;;;;15.00;7.40;;;;;;;-128.00;-1.00;-1.00;105561;1251;1005845;-82
2023/09/13 10:07:12;;;;;;;18.70;6.80;;;;;;;-128.00;-1.00;-1.00;105561;1250;1058954;-81
2023/09/13 10:09:39;;;;;;;15.20;7.00;;;;;;;-128.00;-1.00;-1.00;105546;1251;1004928;-81
2023/09/13 10:12:09;;;;;;;15.00;6.90;;;;;;;-128.00;-1.00;-1.00;105571;1251;1005217;-82
2023/09/13 10:14:37;;;;;;;14.70;7.00;;;;;;;-128.00;-1.00;-1.00;105581;1251;1062300;-81
2023/09/13 10:17:04;;;;;;;12.70;9.60;;;;;;;-128.00;-1.00;-1.00;105469;1251;1003747;-81
2023/09/13 10:19:31;;;;;;;11.80;7.50;;;;;;;-128.00;-1.00;-1.00;105529;1251;1004427;-81
2023/09/13 10:21:58;;;;;;;11.60;7.70;;;;;;;-128.00;-1.00;-1.00;105603;1250;1004767;-81
2023/09/13 10:24:29;;;;;;;14.00;8.10;;;;;;;-128.00;-1.00;-1.00;105450;1251;1003969;-81
2023/09/13 10:26:56;;;;;;;10.40;6.40;;;;;;;-128.00;-1.00;-1.00;105457;1251;1062686;-82
2023/09/13 10:29:45;;;;;;;11.50;8.70;;;;;;;-128.00;-1.00;-1.00;105402;1251;1004429;-82
2023/09/13 10:32:15;;;;;;;15.10;7.20;;;;;;;-128.00;-1.00;-1.00;105584;1251;1058797;-81
2023/09/13 10:35:00;;;;;;;13.40;5.90;;;;;;;-128.00;-1.00;-1.00;105597;1251;1043973;-81
2023/09/13 10:37:39;;;;;;;11.30;6.10;;;;;;;-128.00;-1.00;-1.00;105513;1253;1046800;-81
2023/09/13 10:40:27;;;;;;;10.80;5.80;;;;;;;-128.00;-1.00;-1.00;105300;1254;1063592;-82
2023/09/13 10:42:54;;;;;;;10.80;5.50;;;;;;;-128.00;-1.00;-1.00;105375;1251;1057515;-82
2023/09/13 10:45:22;;;;;;;12.80;6.30;;;;;;;-128.00;-1.00;-1.00;105504;1251;1004182;-82
2023/09/13 10:47:50;;;;;;;9.20;5.70;;;;;;;-128.00;-1.00;-1.00;105577;1250;1004958;-81
2023/09/13 10:50:17;;;;;;;12.70;6.20;;;;;;;-128.00;-1.00;-1.00;105616;1250;1004614;-82
2023/09/13 10:52:43;;;;;;;10.70;6.10;;;;;;;-128.00;-1.00;-1.00;105657;1251;1003771;-82
2023/09/13 10:55:11;;;;;;;11.40;5.90;;;;;;;-128.00;-1.00;-1.00;105436;1251;1003654;-82
2023/09/13 10:57:40;;;;;;;7.80;5.50;;;;;;;-128.00;-1.00;-1.00;105568;1250;1005626;-81
2023/09/13 11:00:12;;;;;;;7.70;6.50;;;;;;;-128.00;-1.00;-1.00;105537;1250;1003576;-81
2023/09/13 11:02:40;;;;;;;8.90;5.40;;;;;;;-128.00;-1.00;-1.00;105594;1250;1047771;-82
2023/09/13 11:05:08;;;;;;;14.80;6.40;;;;;;;-128.00;-1.00;-1.00;105757;1250;1004379;-82
2023/09/13 11:07:40;;;;;;;8.50;5.60;;;;;;;-128.00;-1.00;-1.00;105563;1253;1003582;-82